Saint Thomas, ND

7:11 AM CST on March 01, 2015 (GMT -0600)
Hoople nd | Change Station
CLOSE
Current Station
Personal Weather Station
Location: Hoople, ND
Elevation: 870 ft
Nearby Weather Stations

Elev 870 ft 48.52 °N, 97.62 °W | Updated 4 minutes ago

Partly Cloudy
Partly Cloudy
4.0 °F
Feels Like -11 °F
N
10.0
Wind Variable Wind from West
Gusts 14.0 mph

Today
High -- | Low -- °F
--% Chance of Precip.
Yesterday
High -- | Low -- °F
Precip. -- in
7:11 AM 6:13 PM
Waxing Gibbous, 85% visible
Pressure 30.11 in
Visibility 10.0 miles
Clouds Overcast 2700 ft
Windchill -11 °F
Dew Point -1 °F
Humidity 81%
Rainfall 0.00 in
Snow Depth Not available.
UV 0 out of 12
Pollen .10 out of 12
Air Quality Not available.
Flu Activity Not available.
METAR K2C8 011255Z AUTO 29006KT 10SM OVC027 M15/M18 A3011 RMK AO2

More Conditions Fewer Conditions

Pressure 30.11 in
Visibility 10.0 miles
Clouds Overcast 2700 ft
Windchill -11 °F
Dew Point -1 °F
Humidity 81%
Rainfall 0.00 in
Snow Depth Not available.
UV 0 out of 12
Pollen .10 out of 12
Air Quality Not available.
Flu Activity Not available.
METAR K2C8 011255Z AUTO 29006KT 10SM OVC027 M15/M18 A3011 RMK AO2

More Conditions Fewer Conditions

10-Day Weather Forecast

Almanac

Astronomy

Mar. 01, 2015 Rise Set
Actual Time
Civil Twilight
Nautical Twilight
Astronomical Twilight
Moon
Length of Visible Light
Length of Day
Tomorrow will be .
, % of the Moon is Illuminated

Today's Extremes

State Highs State Lows

Community

WunderPhotos

Upload Photos

1,801,374 photos uploaded!

WunderBlogs® & News

Nearby

Air Quality

  Air Quality AQ Index Pollutant
Not available.

Snow Depth

Station Depth Elevation

Earthquake Activity

City Distance Mag. Time & Date
Minimum magnitude displayed is 2.5.

Coastal Water Temperatures

Place Temperature

Nearby Weather Stations